sensor_id;sensor_type;location;lat;lon;timestamp;P1;durP1;ratioP1;P2;durP2;ratioP2
49029;SDS011;43337;52.070;4.508;2022-11-18T00:01:03;7.25;;;2.03;;
49029;SDS011;43337;52.070;4.508;2022-11-18T00:03:30;5.80;;;2.30;;
49029;SDS011;43337;52.070;4.508;2022-11-18T00:05:55;7.20;;;2.40;;
49029;SDS011;43337;52.070;4.508;2022-11-18T00:08:21;3.22;;;1.95;;
49029;SDS011;43337;52.070;4.508;2022-11-18T00:10:48;3.35;;;1.75;;
49029;SDS011;43337;52.070;4.508;2022-11-18T00:13:14;7.18;;;2.50;;
49029;SDS011;43337;52.070;4.508;2022-11-18T00:16:02;4.75;;;2.15;;
49029;SDS011;43337;52.070;4.508;2022-11-18T00:18:37;5.18;;;2.25;;
49029;SDS011;43337;52.070;4.508;2022-11-18T00:21:03;4.80;;;1.85;;
49029;SDS011;43337;52.070;4.508;2022-11-18T00:23:30;7.15;;;1.88;;
49029;SDS011;43337;52.070;4.508;2022-11-18T00:26:09;5.85;;;1.90;;
49029;SDS011;43337;52.070;4.508;2022-11-18T00:28:36;10.10;;;2.97;;
49029;SDS011;43337;52.070;4.508;2022-11-18T00:31:02;5.97;;;1.73;;
49029;SDS011;43337;52.070;4.508;2022-11-18T00:33:29;5.97;;;2.20;;
49029;SDS011;43337;52.070;4.508;2022-11-18T00:35:55;5.10;;;2.15;;
49029;SDS011;43337;52.070;4.508;2022-11-18T00:38:20;6.95;;;2.97;;
49029;SDS011;43337;52.070;4.508;2022-11-18T00:40:45;5.50;;;2.75;;
49029;SDS011;43337;52.070;4.508;2022-11-18T00:43:11;6.13;;;2.80;;
49029;SDS011;43337;52.070;4.508;2022-11-18T00:45:36;7.10;;;2.90;;
49029;SDS011;43337;52.070;4.508;2022-11-18T00:48:01;8.48;;;2.88;;
49029;SDS011;43337;52.070;4.508;2022-11-18T00:50:27;5.72;;;2.90;;
49029;SDS011;43337;52.070;4.508;2022-11-18T00:52:52;7.45;;;3.35;;
49029;SDS011;43337;52.070;4.508;2022-11-18T00:55:18;8.57;;;3.88;;
49029;SDS011;43337;52.070;4.508;2022-11-18T00:57:43;10.65;;;3.17;;
49029;SDS011;43337;52.070;4.508;2022-11-18T01:00:08;8.10;;;3.13;;
49029;SDS011;43337;52.070;4.508;2022-11-18T01:02:35;6.53;;;2.95;;
49029;SDS011;43337;52.070;4.508;2022-11-18T01:05:00;9.45;;;3.05;;
49029;SDS011;43337;52.070;4.508;2022-11-18T01:07:25;8.43;;;3.55;;
49029;SDS011;43337;52.070;4.508;2022-11-18T01:09:51;8.48;;;3.33;;
49029;SDS011;43337;52.070;4.508;2022-11-18T01:12:16;12.43;;;3.63;;
49029;SDS011;43337;52.070;4.508;2022-11-18T01:15:00;7.68;;;3.20;;
49029;SDS011;43337;52.070;4.508;2022-11-18T01:17:28;7.75;;;3.40;;
49029;SDS011;43337;52.070;4.508;2022-11-18T01:19:54;8.15;;;3.38;;
49029;SDS011;43337;52.070;4.508;2022-11-18T01:22:19;6.15;;;3.03;;
49029;SDS011;43337;52.070;4.508;2022-11-18T01:24:45;9.95;;;3.20;;
49029;SDS011;43337;52.070;4.508;2022-11-18T01:27:10;6.05;;;3.05;;
49029;SDS011;43337;52.070;4.508;2022-11-18T01:29:36;12.18;;;3.20;;
49029;SDS011;43337;52.070;4.508;2022-11-18T01:32:01;9.10;;;4.07;;
49029;SDS011;43337;52.070;4.508;2022-11-18T01:34:27;6.97;;;3.13;;
49029;SDS011;43337;52.070;4.508;2022-11-18T01:36:53;8.63;;;3.63;;
49029;SDS011;43337;52.070;4.508;2022-11-18T01:39:20;10.35;;;4.07;;
49029;SDS011;43337;52.070;4.508;2022-11-18T01:41:46;8.52;;;3.45;;
49029;SDS011;43337;52.070;4.508;2022-11-18T01:47:14;8.57;;;3.72;;
49029;SDS011;43337;52.070;4.508;2022-11-18T01:49:40;9.50;;;3.75;;
49029;SDS011;43337;52.070;4.508;2022-11-18T01:52:05;9.00;;;4.22;;
49029;SDS011;43337;52.070;4.508;2022-11-18T01:54:33;10.07;;;4.18;;
49029;SDS011;43337;52.070;4.508;2022-11-18T01:57:02;8.40;;;4.15;;
49029;SDS011;43337;52.070;4.508;2022-11-18T01:59:32;10.65;;;4.13;;
49029;SDS011;43337;52.070;4.508;2022-11-18T02:02:02;11.65;;;4.18;;
49029;SDS011;43337;52.070;4.508;2022-11-18T02:04:32;10.27;;;4.00;;
49029;SDS011;43337;52.070;4.508;2022-11-18T02:06:58;7.32;;;3.42;;
49029;SDS011;43337;52.070;4.508;2022-11-18T02:09:23;9.15;;;4.55;;
49029;SDS011;43337;52.070;4.508;2022-11-18T02:11:49;11.30;;;4.32;;
49029;SDS011;43337;52.070;4.508;2022-11-18T02:14:15;8.10;;;4.10;;
49029;SDS011;43337;52.070;4.508;2022-11-18T02:24:58;9.35;;;4.57;;
49029;SDS011;43337;52.070;4.508;2022-11-18T02:27:48;8.48;;;4.28;;
49029;SDS011;43337;52.070;4.508;2022-11-18T02:30:46;10.50;;;4.57;;
49029;SDS011;43337;52.070;4.508;2022-11-18T02:36:19;9.10;;;4.00;;
49029;SDS011;43337;52.070;4.508;2022-11-18T02:38:45;8.93;;;4.18;;
49029;SDS011;43337;52.070;4.508;2022-11-18T02:41:17;11.85;;;4.63;;
49029;SDS011;43337;52.070;4.508;2022-11-18T02:43:50;12.75;;;4.85;;
49029;SDS011;43337;52.070;4.508;2022-11-18T02:46:28;10.32;;;4.70;;
49029;SDS011;43337;52.070;4.508;2022-11-18T02:48:57;9.27;;;4.47;;
49029;SDS011;43337;52.070;4.508;2022-11-18T02:51:25;9.35;;;4.63;;
49029;SDS011;43337;52.070;4.508;2022-11-18T02:53:54;13.70;;;4.90;;
49029;SDS011;43337;52.070;4.508;2022-11-18T02:56:23;15.30;;;4.88;;
49029;SDS011;43337;52.070;4.508;2022-11-18T02:58:50;11.45;;;5.32;;
49029;SDS011;43337;52.070;4.508;2022-11-18T03:01:17;9.75;;;4.85;;
49029;SDS011;43337;52.070;4.508;2022-11-18T03:03:45;10.63;;;5.07;;
49029;SDS011;43337;52.070;4.508;2022-11-18T03:11:45;9.88;;;4.68;;
49029;SDS011;43337;52.070;4.508;2022-11-18T03:14:23;14.30;;;4.75;;
49029;SDS011;43337;52.070;4.508;2022-11-18T03:17:00;10.77;;;5.43;;
49029;SDS011;43337;52.070;4.508;2022-11-18T03:24:29;13.95;;;5.43;;
49029;SDS011;43337;52.070;4.508;2022-11-18T03:27:07;10.93;;;4.82;;
49029;SDS011;43337;52.070;4.508;2022-11-18T03:29:39;13.05;;;5.10;;
49029;SDS011;43337;52.070;4.508;2022-11-18T03:32:13;14.40;;;5.40;;
49029;SDS011;43337;52.070;4.508;2022-11-18T03:34:48;11.23;;;4.28;;
49029;SDS011;43337;52.070;4.508;2022-11-18T03:37:17;10.55;;;5.03;;
49029;SDS011;43337;52.070;4.508;2022-11-18T03:39:46;12.27;;;4.82;;
49029;SDS011;43337;52.070;4.508;2022-11-18T03:42:31;10.32;;;4.40;;
49029;SDS011;43337;52.070;4.508;2022-11-18T03:45:04;11.63;;;4.55;;
49029;SDS011;43337;52.070;4.508;2022-11-18T03:47:36;10.17;;;4.60;;
49029;SDS011;43337;52.070;4.508;2022-11-18T03:50:13;8.88;;;4.32;;
49029;SDS011;43337;52.070;4.508;2022-11-18T03:52:43;8.80;;;4.60;;
49029;SDS011;43337;52.070;4.508;2022-11-18T03:55:14;17.13;;;5.25;;
49029;SDS011;43337;52.070;4.508;2022-11-18T03:57:53;10.77;;;4.82;;
49029;SDS011;43337;52.070;4.508;2022-11-18T04:00:22;9.85;;;4.80;;
49029;SDS011;43337;52.070;4.508;2022-11-18T04:02:50;10.68;;;4.20;;
49029;SDS011;43337;52.070;4.508;2022-11-18T04:05:16;10.55;;;4.47;;
49029;SDS011;43337;52.070;4.508;2022-11-18T04:10:30;9.75;;;4.10;;
49029;SDS011;43337;52.070;4.508;2022-11-18T04:13:06;15.65;;;5.43;;
49029;SDS011;43337;52.070;4.508;2022-11-18T04:15:35;11.13;;;4.65;;
49029;SDS011;43337;52.070;4.508;2022-11-18T04:18:02;14.93;;;5.20;;
49029;SDS011;43337;52.070;4.508;2022-11-18T04:20:28;12.13;;;4.50;;
49029;SDS011;43337;52.070;4.508;2022-11-18T04:22:53;10.90;;;4.35;;
49029;SDS011;43337;52.070;4.508;2022-11-18T04:25:19;13.93;;;4.65;;
49029;SDS011;43337;52.070;4.508;2022-11-18T04:27:44;15.50;;;4.50;;
49029;SDS011;43337;52.070;4.508;2022-11-18T04:30:10;8.90;;;4.07;;
49029;SDS011;43337;52.070;4.508;2022-11-18T04:32:35;13.93;;;4.45;;
49029;SDS011;43337;52.070;4.508;2022-11-18T04:35:01;8.77;;;4.13;;
49029;SDS011;43337;52.070;4.508;2022-11-18T04:37:27;10.77;;;4.20;;
49029;SDS011;43337;52.070;4.508;2022-11-18T04:39:52;10.98;;;4.20;;
49029;SDS011;43337;52.070;4.508;2022-11-18T04:42:17;11.80;;;4.50;;
49029;SDS011;43337;52.070;4.508;2022-11-18T04:44:43;11.32;;;4.43;;
49029;SDS011;43337;52.070;4.508;2022-11-18T04:47:08;13.45;;;4.55;;
49029;SDS011;43337;52.070;4.508;2022-11-18T04:49:34;9.52;;;4.30;;
49029;SDS011;43337;52.070;4.508;2022-11-18T04:51:59;13.18;;;4.47;;
49029;SDS011;43337;52.070;4.508;2022-11-18T04:54:25;7.28;;;3.90;;
49029;SDS011;43337;52.070;4.508;2022-11-18T04:56:52;10.43;;;4.20;;
49029;SDS011;43337;52.070;4.508;2022-11-18T04:59:19;13.60;;;4.60;;
49029;SDS011;43337;52.070;4.508;2022-11-18T05:01:46;12.13;;;5.35;;
49029;SDS011;43337;52.070;4.508;2022-11-18T05:04:14;8.15;;;3.95;;
49029;SDS011;43337;52.070;4.508;2022-11-18T05:06:41;11.25;;;3.95;;
49029;SDS011;43337;52.070;4.508;2022-11-18T05:09:07;11.88;;;4.05;;
49029;SDS011;43337;52.070;4.508;2022-11-18T05:11:32;10.85;;;3.72;;
49029;SDS011;43337;52.070;4.508;2022-11-18T05:14:17;14.05;;;3.65;;
49029;SDS011;43337;52.070;4.508;2022-11-18T05:16:42;8.15;;;3.83;;
49029;SDS011;43337;52.070;4.508;2022-11-18T05:19:08;11.98;;;4.47;;
49029;SDS011;43337;52.070;4.508;2022-11-18T05:21:34;9.70;;;4.15;;
49029;SDS011;43337;52.070;4.508;2022-11-18T05:24:00;11.63;;;4.25;;
49029;SDS011;43337;52.070;4.508;2022-11-18T05:26:26;9.27;;;4.25;;
49029;SDS011;43337;52.070;4.508;2022-11-18T05:28:52;11.07;;;4.03;;
49029;SDS011;43337;52.070;4.508;2022-11-18T05:31:17;13.32;;;4.55;;
49029;SDS011;43337;52.070;4.508;2022-11-18T05:33:43;9.68;;;3.83;;
49029;SDS011;43337;52.070;4.508;2022-11-18T05:36:13;10.30;;;3.78;;
49029;SDS011;43337;52.070;4.508;2022-11-18T05:38:40;10.15;;;4.20;;
49029;SDS011;43337;52.070;4.508;2022-11-18T05:41:06;10.02;;;4.13;;
49029;SDS011;43337;52.070;4.508;2022-11-18T05:43:32;15.07;;;3.92;;
49029;SDS011;43337;52.070;4.508;2022-11-18T05:45:59;13.85;;;4.80;;
49029;SDS011;43337;52.070;4.508;2022-11-18T05:48:24;14.60;;;5.22;;
49029;SDS011;43337;52.070;4.508;2022-11-18T05:50:51;8.50;;;4.15;;
49029;SDS011;43337;52.070;4.508;2022-11-18T05:53:18;11.63;;;4.32;;
49029;SDS011;43337;52.070;4.508;2022-11-18T05:58:35;10.18;;;4.38;;
49029;SDS011;43337;52.070;4.508;2022-11-18T06:01:02;10.60;;;4.05;;
49029;SDS011;43337;52.070;4.508;2022-11-18T06:03:30;20.15;;;4.93;;
49029;SDS011;43337;52.070;4.508;2022-11-18T06:06:01;10.30;;;4.80;;
49029;SDS011;43337;52.070;4.508;2022-11-18T06:08:30;15.60;;;5.13;;
49029;SDS011;43337;52.070;4.508;2022-11-18T06:11:13;15.02;;;4.97;;
49029;SDS011;43337;52.070;4.508;2022-11-18T06:13:42;9.88;;;4.35;;
49029;SDS011;43337;52.070;4.508;2022-11-18T06:16:15;14.32;;;5.07;;
49029;SDS011;43337;52.070;4.508;2022-11-18T06:18:42;11.98;;;4.97;;
49029;SDS011;43337;52.070;4.508;2022-11-18T06:21:07;15.15;;;5.05;;
49029;SDS011;43337;52.070;4.508;2022-11-18T06:23:34;14.18;;;5.30;;
49029;SDS011;43337;52.070;4.508;2022-11-18T06:26:01;11.57;;;5.93;;
49029;SDS011;43337;52.070;4.508;2022-11-18T06:28:28;16.48;;;5.57;;
49029;SDS011;43337;52.070;4.508;2022-11-18T06:30:54;11.23;;;5.10;;
49029;SDS011;43337;52.070;4.508;2022-11-18T06:33:19;16.20;;;5.90;;
49029;SDS011;43337;52.070;4.508;2022-11-18T06:35:44;12.60;;;4.95;;
49029;SDS011;43337;52.070;4.508;2022-11-18T06:38:10;10.73;;;4.70;;
49029;SDS011;43337;52.070;4.508;2022-11-18T06:40:35;12.02;;;4.93;;
49029;SDS011;43337;52.070;4.508;2022-11-18T06:43:07;13.52;;;4.63;;
49029;SDS011;43337;52.070;4.508;2022-11-18T06:45:52;18.35;;;5.25;;
49029;SDS011;43337;52.070;4.508;2022-11-18T06:48:41;13.52;;;5.18;;
49029;SDS011;43337;52.070;4.508;2022-11-18T06:51:06;11.57;;;5.35;;
49029;SDS011;43337;52.070;4.508;2022-11-18T06:53:35;13.65;;;5.05;;
49029;SDS011;43337;52.070;4.508;2022-11-18T06:56:02;14.32;;;4.53;;
49029;SDS011;43337;52.070;4.508;2022-11-18T06:58:30;12.90;;;4.63;;
49029;SDS011;43337;52.070;4.508;2022-11-18T07:00:56;11.18;;;4.32;;
49029;SDS011;43337;52.070;4.508;2022-11-18T07:03:21;10.85;;;4.80;;
49029;SDS011;43337;52.070;4.508;2022-11-18T07:05:46;15.45;;;4.85;;
49029;SDS011;43337;52.070;4.508;2022-11-18T07:08:12;16.05;;;4.80;;
49029;SDS011;43337;52.070;4.508;2022-11-18T07:10:37;12.20;;;4.72;;
49029;SDS011;43337;52.070;4.508;2022-11-18T07:13:03;15.80;;;5.53;;
49029;SDS011;43337;52.070;4.508;2022-11-18T07:15:28;12.70;;;4.28;;
49029;SDS011;43337;52.070;4.508;2022-11-18T07:17:53;17.35;;;4.82;;
49029;SDS011;43337;52.070;4.508;2022-11-18T07:20:19;12.50;;;4.38;;
49029;SDS011;43337;52.070;4.508;2022-11-18T07:22:44;11.27;;;4.47;;
49029;SDS011;43337;52.070;4.508;2022-11-18T07:25:09;9.65;;;4.13;;
49029;SDS011;43337;52.070;4.508;2022-11-18T07:27:35;10.02;;;4.13;;
49029;SDS011;43337;52.070;4.508;2022-11-18T07:30:00;13.30;;;4.70;;
49029;SDS011;43337;52.070;4.508;2022-11-18T07:32:25;15.05;;;4.93;;
49029;SDS011;43337;52.070;4.508;2022-11-18T07:34:50;13.13;;;4.95;;
49029;SDS011;43337;52.070;4.508;2022-11-18T07:37:16;14.70;;;4.25;;
49029;SDS011;43337;52.070;4.508;2022-11-18T07:39:41;17.00;;;4.13;;
49029;SDS011;43337;52.070;4.508;2022-11-18T07:42:07;24.77;;;10.38;;
49029;SDS011;43337;52.070;4.508;2022-11-18T07:44:33;29.48;;;15.13;;
49029;SDS011;43337;52.070;4.508;2022-11-18T07:46:59;13.77;;;5.25;;
49029;SDS011;43337;52.070;4.508;2022-11-18T07:49:27;10.65;;;4.75;;
49029;SDS011;43337;52.070;4.508;2022-11-18T07:51:52;12.32;;;4.32;;
49029;SDS011;43337;52.070;4.508;2022-11-18T07:54:18;9.32;;;3.65;;
49029;SDS011;43337;52.070;4.508;2022-11-18T07:56:43;11.43;;;3.90;;
49029;SDS011;43337;52.070;4.508;2022-11-18T07:59:09;14.57;;;4.82;;
49029;SDS011;43337;52.070;4.508;2022-11-18T08:01:34;9.27;;;3.65;;
49029;SDS011;43337;52.070;4.508;2022-11-18T08:04:04;16.27;;;4.10;;
49029;SDS011;43337;52.070;4.508;2022-11-18T08:06:32;13.50;;;3.72;;
49029;SDS011;43337;52.070;4.508;2022-11-18T08:08:59;9.38;;;3.53;;
49029;SDS011;43337;52.070;4.508;2022-11-18T08:11:24;10.82;;;3.92;;
49029;SDS011;43337;52.070;4.508;2022-11-18T08:13:50;9.10;;;3.55;;
49029;SDS011;43337;52.070;4.508;2022-11-18T08:16:17;7.40;;;3.40;;
49029;SDS011;43337;52.070;4.508;2022-11-18T08:18:44;9.32;;;2.63;;
49029;SDS011;43337;52.070;4.508;2022-11-18T08:21:10;12.18;;;3.65;;
49029;SDS011;43337;52.070;4.508;2022-11-18T08:23:37;8.82;;;3.25;;
49029;SDS011;43337;52.070;4.508;2022-11-18T08:26:10;14.18;;;3.47;;
49029;SDS011;43337;52.070;4.508;2022-11-18T08:31:12;11.88;;;3.80;;
49029;SDS011;43337;52.070;4.508;2022-11-18T08:33:39;10.02;;;3.95;;
49029;SDS011;43337;52.070;4.508;2022-11-18T08:36:09;8.02;;;2.90;;
49029;SDS011;43337;52.070;4.508;2022-11-18T08:38:38;13.13;;;4.18;;
49029;SDS011;43337;52.070;4.508;2022-11-18T08:41:03;14.35;;;3.70;;
49029;SDS011;43337;52.070;4.508;2022-11-18T08:43:31;11.07;;;2.90;;
49029;SDS011;43337;52.070;4.508;2022-11-18T08:45:57;8.55;;;2.90;;
49029;SDS011;43337;52.070;4.508;2022-11-18T08:48:23;10.10;;;2.88;;
49029;SDS011;43337;52.070;4.508;2022-11-18T08:50:48;11.18;;;3.33;;
49029;SDS011;43337;52.070;4.508;2022-11-18T08:53:14;8.88;;;2.58;;
49029;SDS011;43337;52.070;4.508;2022-11-18T08:55:41;9.57;;;2.78;;
49029;SDS011;43337;52.070;4.508;2022-11-18T08:58:07;7.07;;;3.10;;
49029;SDS011;43337;52.070;4.508;2022-11-18T09:00:32;9.30;;;2.70;;
49029;SDS011;43337;52.070;4.508;2022-11-18T09:02:58;13.10;;;2.80;;
49029;SDS011;43337;52.070;4.508;2022-11-18T09:05:23;9.07;;;2.70;;
49029;SDS011;43337;52.070;4.508;2022-11-18T09:07:48;9.52;;;2.58;;
49029;SDS011;43337;52.070;4.508;2022-11-18T09:10:14;11.05;;;2.60;;
49029;SDS011;43337;52.070;4.508;2022-11-18T09:12:43;11.75;;;2.67;;
49029;SDS011;43337;52.070;4.508;2022-11-18T09:15:09;8.85;;;2.88;;
49029;SDS011;43337;52.070;4.508;2022-11-18T09:17:36;8.52;;;2.78;;
49029;SDS011;43337;52.070;4.508;2022-11-18T09:20:01;9.40;;;2.53;;
49029;SDS011;43337;52.070;4.508;2022-11-18T09:22:27;9.32;;;2.58;;
49029;SDS011;43337;52.070;4.508;2022-11-18T09:24:52;13.23;;;3.50;;
49029;SDS011;43337;52.070;4.508;2022-11-18T09:27:18;11.52;;;2.58;;
49029;SDS011;43337;52.070;4.508;2022-11-18T09:29:43;9.95;;;2.83;;
49029;SDS011;43337;52.070;4.508;2022-11-18T09:32:09;7.63;;;3.03;;
49029;SDS011;43337;52.070;4.508;2022-11-18T09:34:34;9.52;;;3.10;;
49029;SDS011;43337;52.070;4.508;2022-11-18T09:37:01;7.38;;;2.60;;
49029;SDS011;43337;52.070;4.508;2022-11-18T09:39:29;9.10;;;2.70;;
49029;SDS011;43337;52.070;4.508;2022-11-18T09:42:16;8.43;;;2.33;;
49029;SDS011;43337;52.070;4.508;2022-11-18T09:47:30;9.18;;;2.50;;
49029;SDS011;43337;52.070;4.508;2022-11-18T09:49:59;11.32;;;3.13;;
49029;SDS011;43337;52.070;4.508;2022-11-18T09:52:30;8.73;;;2.80;;
49029;SDS011;43337;52.070;4.508;2022-11-18T09:55:00;9.80;;;2.40;;
49029;SDS011;43337;52.070;4.508;2022-11-18T09:57:30;10.90;;;2.70;;
49029;SDS011;43337;52.070;4.508;2022-11-18T10:00:05;5.97;;;2.50;;
49029;SDS011;43337;52.070;4.508;2022-11-18T10:05:19;8.93;;;2.72;;
49029;SDS011;43337;52.070;4.508;2022-11-18T10:07:58;10.43;;;2.63;;
49029;SDS011;43337;52.070;4.508;2022-11-18T10:24:44;11.45;;;3.28;;
49029;SDS011;43337;52.070;4.508;2022-11-18T10:27:14;8.98;;;3.40;;
49029;SDS011;43337;52.070;4.508;2022-11-18T10:29:40;7.30;;;3.03;;
49029;SDS011;43337;52.070;4.508;2022-11-18T10:32:14;12.27;;;3.05;;
49029;SDS011;43337;52.070;4.508;2022-11-18T10:34:55;8.65;;;3.30;;
49029;SDS011;43337;52.070;4.508;2022-11-18T10:37:26;9.90;;;2.67;;
49029;SDS011;43337;52.070;4.508;2022-11-18T10:39:55;11.05;;;3.17;;
49029;SDS011;43337;52.070;4.508;2022-11-18T10:42:29;13.05;;;3.38;;
49029;SDS011;43337;52.070;4.508;2022-11-18T10:50:29;8.68;;;2.65;;
49029;SDS011;43337;52.070;4.508;2022-11-18T10:52:56;13.45;;;3.05;;
49029;SDS011;43337;52.070;4.508;2022-11-18T10:55:23;11.23;;;3.45;;
49029;SDS011;43337;52.070;4.508;2022-11-18T10:57:51;9.32;;;3.10;;
49029;SDS011;43337;52.070;4.508;2022-11-18T11:00:37;9.30;;;3.33;;
49029;SDS011;43337;52.070;4.508;2022-11-18T11:09:08;9.73;;;3.70;;
49029;SDS011;43337;52.070;4.508;2022-11-18T11:11:56;8.48;;;3.53;;
49029;SDS011;43337;52.070;4.508;2022-11-18T11:14:34;9.75;;;4.18;;
49029;SDS011;43337;52.070;4.508;2022-11-18T11:17:07;9.80;;;4.28;;
49029;SDS011;43337;52.070;4.508;2022-11-18T11:22:23;13.82;;;4.30;;
49029;SDS011;43337;52.070;4.508;2022-11-18T11:24:48;11.65;;;5.22;;
49029;SDS011;43337;52.070;4.508;2022-11-18T11:27:22;12.85;;;4.72;;
49029;SDS011;43337;52.070;4.508;2022-11-18T11:32:41;11.70;;;4.78;;
49029;SDS011;43337;52.070;4.508;2022-11-18T11:35:32;13.18;;;4.75;;
49029;SDS011;43337;52.070;4.508;2022-11-18T11:38:19;15.57;;;5.28;;
49029;SDS011;43337;52.070;4.508;2022-11-18T11:41:10;9.73;;;4.47;;
49029;SDS011;43337;52.070;4.508;2022-11-18T11:48:54;8.32;;;4.32;;
49029;SDS011;43337;52.070;4.508;2022-11-18T12:07:29;13.07;;;5.32;;
49029;SDS011;43337;52.070;4.508;2022-11-18T12:12:36;15.95;;;5.40;;
49029;SDS011;43337;52.070;4.508;2022-11-18T12:15:10;11.30;;;5.05;;
49029;SDS011;43337;52.070;4.508;2022-11-18T12:17:42;13.73;;;5.57;;
49029;SDS011;43337;52.070;4.508;2022-11-18T12:23:11;16.33;;;6.30;;
49029;SDS011;43337;52.070;4.508;2022-11-18T12:36:30;16.90;;;6.50;;
49029;SDS011;43337;52.070;4.508;2022-11-18T12:38:56;14.25;;;6.30;;
49029;SDS011;43337;52.070;4.508;2022-11-18T12:44:22;19.42;;;6.43;;
49029;SDS011;43337;52.070;4.508;2022-11-18T12:46:49;14.52;;;6.88;;
49029;SDS011;43337;52.070;4.508;2022-11-18T12:51:45;14.60;;;6.43;;
49029;SDS011;43337;52.070;4.508;2022-11-18T12:54:29;19.70;;;7.25;;
49029;SDS011;43337;52.070;4.508;2022-11-18T12:57:12;14.80;;;6.60;;
49029;SDS011;43337;52.070;4.508;2022-11-18T12:59:51;19.27;;;7.57;;
49029;SDS011;43337;52.070;4.508;2022-11-18T13:07:37;16.13;;;7.40;;
49029;SDS011;43337;52.070;4.508;2022-11-18T13:10:33;16.52;;;7.60;;
49029;SDS011;43337;52.070;4.508;2022-11-18T13:13:02;13.38;;;7.68;;
49029;SDS011;43337;52.070;4.508;2022-11-18T13:15:28;16.30;;;7.32;;
49029;SDS011;43337;52.070;4.508;2022-11-18T13:20:42;16.70;;;7.85;;
49029;SDS011;43337;52.070;4.508;2022-11-18T13:25:52;16.65;;;7.78;;
49029;SDS011;43337;52.070;4.508;2022-11-18T13:31:01;19.17;;;8.60;;
49029;SDS011;43337;52.070;4.508;2022-11-18T13:33:37;15.65;;;7.68;;
49029;SDS011;43337;52.070;4.508;2022-11-18T13:36:14;13.95;;;6.97;;
49029;SDS011;43337;52.070;4.508;2022-11-18T13:38:58;14.52;;;6.90;;
49029;SDS011;43337;52.070;4.508;2022-11-18T13:41:31;15.65;;;7.07;;
49029;SDS011;43337;52.070;4.508;2022-11-18T13:46:36;12.27;;;6.45;;
49029;SDS011;43337;52.070;4.508;2022-11-18T13:49:03;16.83;;;6.32;;
49029;SDS011;43337;52.070;4.508;2022-11-18T13:51:28;14.00;;;6.57;;
49029;SDS011;43337;52.070;4.508;2022-11-18T13:53:54;16.35;;;6.50;;
49029;SDS011;43337;52.070;4.508;2022-11-18T13:56:24;13.70;;;6.22;;
49029;SDS011;43337;52.070;4.508;2022-11-18T13:58:53;14.82;;;7.47;;
49029;SDS011;43337;52.070;4.508;2022-11-18T14:01:24;11.60;;;7.00;;
49029;SDS011;43337;52.070;4.508;2022-11-18T14:03:53;18.92;;;7.30;;
49029;SDS011;43337;52.070;4.508;2022-11-18T14:06:33;17.27;;;7.25;;
49029;SDS011;43337;52.070;4.508;2022-11-18T14:09:14;14.88;;;7.93;;
49029;SDS011;43337;52.070;4.508;2022-11-18T14:11:45;23.73;;;8.32;;
49029;SDS011;43337;52.070;4.508;2022-11-18T14:14:29;17.02;;;7.35;;
49029;SDS011;43337;52.070;4.508;2022-11-18T14:19:48;15.32;;;8.30;;
49029;SDS011;43337;52.070;4.508;2022-11-18T14:22:22;14.60;;;8.93;;
49029;SDS011;43337;52.070;4.508;2022-11-18T14:24:55;13.75;;;7.63;;
49029;SDS011;43337;52.070;4.508;2022-11-18T14:27:41;22.42;;;9.35;;
49029;SDS011;43337;52.070;4.508;2022-11-18T14:30:24;15.50;;;8.75;;
49029;SDS011;43337;52.070;4.508;2022-11-18T14:35:44;14.85;;;7.63;;
49029;SDS011;43337;52.070;4.508;2022-11-18T14:38:42;20.25;;;9.10;;
49029;SDS011;43337;52.070;4.508;2022-11-18T14:41:11;21.02;;;9.52;;
49029;SDS011;43337;52.070;4.508;2022-11-18T14:43:38;20.63;;;8.90;;
49029;SDS011;43337;52.070;4.508;2022-11-18T14:46:14;20.38;;;9.02;;
49029;SDS011;43337;52.070;4.508;2022-11-18T14:48:42;19.73;;;9.15;;
49029;SDS011;43337;52.070;4.508;2022-11-18T14:51:14;17.67;;;9.25;;
49029;SDS011;43337;52.070;4.508;2022-11-18T14:53:40;21.65;;;10.02;;
49029;SDS011;43337;52.070;4.508;2022-11-18T14:56:10;19.88;;;9.18;;
49029;SDS011;43337;52.070;4.508;2022-11-18T14:58:39;22.60;;;10.10;;
49029;SDS011;43337;52.070;4.508;2022-11-18T15:01:04;20.20;;;9.27;;
49029;SDS011;43337;52.070;4.508;2022-11-18T15:03:32;23.30;;;9.85;;
49029;SDS011;43337;52.070;4.508;2022-11-18T15:05:57;18.33;;;9.73;;
49029;SDS011;43337;52.070;4.508;2022-11-18T15:08:23;23.70;;;10.43;;
49029;SDS011;43337;52.070;4.508;2022-11-18T15:10:48;19.33;;;9.77;;
49029;SDS011;43337;52.070;4.508;2022-11-18T15:13:13;73.13;;;35.05;;
49029;SDS011;43337;52.070;4.508;2022-11-18T15:15:39;26.50;;;12.68;;
49029;SDS011;43337;52.070;4.508;2022-11-18T15:18:04;24.23;;;10.75;;
49029;SDS011;43337;52.070;4.508;2022-11-18T15:20:29;23.05;;;10.65;;
49029;SDS011;43337;52.070;4.508;2022-11-18T15:22:55;20.15;;;10.25;;
49029;SDS011;43337;52.070;4.508;2022-11-18T15:25:20;19.73;;;9.38;;
49029;SDS011;43337;52.070;4.508;2022-11-18T15:27:45;22.75;;;9.90;;
49029;SDS011;43337;52.070;4.508;2022-11-18T15:30:11;19.08;;;10.57;;
49029;SDS011;43337;52.070;4.508;2022-11-18T15:32:39;20.50;;;10.45;;
49029;SDS011;43337;52.070;4.508;2022-11-18T15:35:05;20.52;;;10.15;;
49029;SDS011;43337;52.070;4.508;2022-11-18T15:37:30;18.73;;;9.57;;
49029;SDS011;43337;52.070;4.508;2022-11-18T15:39:56;16.92;;;9.23;;
49029;SDS011;43337;52.070;4.508;2022-11-18T15:42:21;20.05;;;9.30;;
49029;SDS011;43337;52.070;4.508;2022-11-18T15:44:46;19.75;;;9.27;;
49029;SDS011;43337;52.070;4.508;2022-11-18T15:47:12;16.67;;;8.98;;
49029;SDS011;43337;52.070;4.508;2022-11-18T15:49:37;39.90;;;20.67;;
49029;SDS011;43337;52.070;4.508;2022-11-18T15:52:07;31.58;;;19.25;;
49029;SDS011;43337;52.070;4.508;2022-11-18T15:54:34;18.23;;;10.32;;
49029;SDS011;43337;52.070;4.508;2022-11-18T15:56:59;25.25;;;14.30;;
49029;SDS011;43337;52.070;4.508;2022-11-18T15:59:24;24.27;;;9.55;;
49029;SDS011;43337;52.070;4.508;2022-11-18T16:01:50;18.88;;;9.10;;
49029;SDS011;43337;52.070;4.508;2022-11-18T16:04:19;18.50;;;9.73;;
49029;SDS011;43337;52.070;4.508;2022-11-18T16:06:45;16.50;;;9.68;;
49029;SDS011;43337;52.070;4.508;2022-11-18T16:09:11;19.10;;;9.35;;
49029;SDS011;43337;52.070;4.508;2022-11-18T16:11:37;21.35;;;9.93;;
49029;SDS011;43337;52.070;4.508;2022-11-18T16:14:21;16.92;;;9.07;;
49029;SDS011;43337;52.070;4.508;2022-11-18T16:16:48;17.58;;;9.02;;
49029;SDS011;43337;52.070;4.508;2022-11-18T16:19:16;18.77;;;9.55;;
49029;SDS011;43337;52.070;4.508;2022-11-18T16:21:47;19.27;;;9.05;;
49029;SDS011;43337;52.070;4.508;2022-11-18T16:24:18;19.95;;;9.52;;
49029;SDS011;43337;52.070;4.508;2022-11-18T16:26:45;19.55;;;10.10;;
49029;SDS011;43337;52.070;4.508;2022-11-18T16:29:11;19.02;;;9.50;;
49029;SDS011;43337;52.070;4.508;2022-11-18T16:31:39;22.13;;;9.50;;
49029;SDS011;43337;52.070;4.508;2022-11-18T16:34:14;19.98;;;10.40;;
49029;SDS011;43337;52.070;4.508;2022-11-18T16:36:42;23.02;;;11.27;;
49029;SDS011;43337;52.070;4.508;2022-11-18T16:39:10;19.15;;;10.00;;
49029;SDS011;43337;52.070;4.508;2022-11-18T16:41:37;20.42;;;10.00;;
49029;SDS011;43337;52.070;4.508;2022-11-18T16:44:05;23.50;;;10.30;;
49029;SDS011;43337;52.070;4.508;2022-11-18T16:46:33;17.92;;;9.32;;
49029;SDS011;43337;52.070;4.508;2022-11-18T16:49:01;19.48;;;10.50;;
49029;SDS011;43337;52.070;4.508;2022-11-18T16:51:28;16.75;;;8.90;;
49029;SDS011;43337;52.070;4.508;2022-11-18T16:54:36;19.80;;;8.93;;
49029;SDS011;43337;52.070;4.508;2022-11-18T16:56:45;21.50;;;9.82;;
49029;SDS011;43337;52.070;4.508;2022-11-18T16:59:13;20.13;;;9.82;;
49029;SDS011;43337;52.070;4.508;2022-11-18T17:01:40;19.30;;;9.85;;
49029;SDS011;43337;52.070;4.508;2022-11-18T17:04:06;21.75;;;9.68;;